sensor_id;sensor_type;location;lat;lon;timestamp;temperature;humidity
15450;DHT22;7826;49.784;9.934;2023-11-21T00:01:59;8.50;1.00
15450;DHT22;7826;49.784;9.934;2023-11-21T00:04:26;8.40;1.00
15450;DHT22;7826;49.784;9.934;2023-11-21T00:06:54;8.40;1.00
15450;DHT22;7826;49.784;9.934;2023-11-21T00:09:21;8.40;1.00
15450;DHT22;7826;49.784;9.934;2023-11-21T00:11:48;8.30;1.00
15450;DHT22;7826;49.784;9.934;2023-11-21T00:14:14;8.30;1.00
15450;DHT22;7826;49.784;9.934;2023-11-21T00:16:43;8.40;1.00
15450;DHT22;7826;49.784;9.934;2023-11-21T00:19:10;8.40;1.00
15450;DHT22;7826;49.784;9.934;2023-11-21T00:21:36;8.30;1.00
15450;DHT22;7826;49.784;9.934;2023-11-21T00:24:03;8.40;1.00
15450;DHT22;7826;49.784;9.934;2023-11-21T00:26:30;8.40;1.00
15450;DHT22;7826;49.784;9.934;2023-11-21T00:29:02;8.30;1.00
15450;DHT22;7826;49.784;9.934;2023-11-21T00:31:29;8.30;1.00
15450;DHT22;7826;49.784;9.934;2023-11-21T00:33:57;8.30;1.00
15450;DHT22;7826;49.784;9.934;2023-11-21T00:36:24;8.30;1.00
15450;DHT22;7826;49.784;9.934;2023-11-21T00:38:52;8.30;1.00
15450;DHT22;7826;49.784;9.934;2023-11-21T00:41:18;8.30;1.00
15450;DHT22;7826;49.784;9.934;2023-11-21T00:43:44;8.30;1.00
15450;DHT22;7826;49.784;9.934;2023-11-21T00:46:12;8.30;1.00
15450;DHT22;7826;49.784;9.934;2023-11-21T00:48:38;8.30;1.00
15450;DHT22;7826;49.784;9.934;2023-11-21T00:51:05;8.30;1.00
15450;DHT22;7826;49.784;9.934;2023-11-21T00:53:32;8.30;1.00
15450;DHT22;7826;49.784;9.934;2023-11-21T00:55:58;8.30;1.00
15450;DHT22;7826;49.784;9.934;2023-11-21T00:58:25;8.30;1.00
15450;DHT22;7826;49.784;9.934;2023-11-21T01:00:51;8.40;1.00
15450;DHT22;7826;49.784;9.934;2023-11-21T01:03:18;8.30;1.00
15450;DHT22;7826;49.784;9.934;2023-11-21T01:05:45;8.40;1.00
15450;DHT22;7826;49.784;9.934;2023-11-21T01:08:12;8.30;1.00
15450;DHT22;7826;49.784;9.934;2023-11-21T01:10:38;8.30;1.00
15450;DHT22;7826;49.784;9.934;2023-11-21T01:13:05;8.30;1.00
15450;DHT22;7826;49.784;9.934;2023-11-21T01:15:31;8.20;1.00
15450;DHT22;7826;49.784;9.934;2023-11-21T01:17:58;8.20;1.00
15450;DHT22;7826;49.784;9.934;2023-11-21T01:20:24;8.20;1.00
15450;DHT22;7826;49.784;9.934;2023-11-21T01:22:51;8.10;1.00
15450;DHT22;7826;49.784;9.934;2023-11-21T01:25:17;8.10;1.00
15450;DHT22;7826;49.784;9.934;2023-11-21T01:27:44;8.10;1.00
15450;DHT22;7826;49.784;9.934;2023-11-21T01:30:11;8.00;1.00
15450;DHT22;7826;49.784;9.934;2023-11-21T01:32:37;7.90;1.00
15450;DHT22;7826;49.784;9.934;2023-11-21T01:35:04;7.90;1.00
15450;DHT22;7826;49.784;9.934;2023-11-21T01:37:33;7.80;1.00
15450;DHT22;7826;49.784;9.934;2023-11-21T01:39:59;7.70;1.00
15450;DHT22;7826;49.784;9.934;2023-11-21T01:42:27;7.70;1.00
15450;DHT22;7826;49.784;9.934;2023-11-21T01:44:55;7.50;1.00
15450;DHT22;7826;49.784;9.934;2023-11-21T01:47:22;7.60;1.00
15450;DHT22;7826;49.784;9.934;2023-11-21T01:49:48;7.60;1.00
15450;DHT22;7826;49.784;9.934;2023-11-21T01:52:15;7.50;1.00
15450;DHT22;7826;49.784;9.934;2023-11-21T01:54:42;7.50;1.00
15450;DHT22;7826;49.784;9.934;2023-11-21T01:57:08;7.50;1.00
15450;DHT22;7826;49.784;9.934;2023-11-21T01:59:37;7.30;1.00
15450;DHT22;7826;49.784;9.934;2023-11-21T02:02:07;7.30;1.00
15450;DHT22;7826;49.784;9.934;2023-11-21T02:04:34;7.20;1.00
15450;DHT22;7826;49.784;9.934;2023-11-21T02:07:01;7.20;1.00
15450;DHT22;7826;49.784;9.934;2023-11-21T02:09:28;7.10;1.00
15450;DHT22;7826;49.784;9.934;2023-11-21T02:11:56;7.20;1.00
15450;DHT22;7826;49.784;9.934;2023-11-21T02:14:28;7.30;1.00
15450;DHT22;7826;49.784;9.934;2023-11-21T02:16:55;7.20;1.00
15450;DHT22;7826;49.784;9.934;2023-11-21T02:19:23;7.20;1.00
15450;DHT22;7826;49.784;9.934;2023-11-21T02:21:52;7.10;1.00
15450;DHT22;7826;49.784;9.934;2023-11-21T02:24:20;7.10;1.00
15450;DHT22;7826;49.784;9.934;2023-11-21T02:26:50;7.00;1.00
15450;DHT22;7826;49.784;9.934;2023-11-21T02:29:20;7.00;1.00
15450;DHT22;7826;49.784;9.934;2023-11-21T02:31:55;6.90;1.00
15450;DHT22;7826;49.784;9.934;2023-11-21T02:34:22;6.90;1.00
15450;DHT22;7826;49.784;9.934;2023-11-21T02:36:49;6.90;1.00
15450;DHT22;7826;49.784;9.934;2023-11-21T02:39:18;6.80;1.00
15450;DHT22;7826;49.784;9.934;2023-11-21T02:41:48;6.80;1.00
15450;DHT22;7826;49.784;9.934;2023-11-21T02:44:15;6.80;1.00
15450;DHT22;7826;49.784;9.934;2023-11-21T02:46:41;6.80;1.00
15450;DHT22;7826;49.784;9.934;2023-11-21T02:49:08;6.90;1.00
15450;DHT22;7826;49.784;9.934;2023-11-21T02:51:36;6.80;1.00
15450;DHT22;7826;49.784;9.934;2023-11-21T02:54:05;6.80;1.00
15450;DHT22;7826;49.784;9.934;2023-11-21T02:56:33;6.80;1.00
15450;DHT22;7826;49.784;9.934;2023-11-21T02:59:00;6.80;1.00
15450;DHT22;7826;49.784;9.934;2023-11-21T03:01:28;6.80;1.00
15450;DHT22;7826;49.784;9.934;2023-11-21T03:03:54;6.70;1.00
15450;DHT22;7826;49.784;9.934;2023-11-21T03:06:22;6.70;1.00
15450;DHT22;7826;49.784;9.934;2023-11-21T03:08:49;6.60;1.00
15450;DHT22;7826;49.784;9.934;2023-11-21T03:11:16;6.60;1.00
15450;DHT22;7826;49.784;9.934;2023-11-21T03:13:54;6.60;1.00
15450;DHT22;7826;49.784;9.934;2023-11-21T03:16:21;6.60;1.00
15450;DHT22;7826;49.784;9.934;2023-11-21T03:18:47;6.60;1.00
15450;DHT22;7826;49.784;9.934;2023-11-21T03:21:14;6.60;1.00
15450;DHT22;7826;49.784;9.934;2023-11-21T03:23:40;6.50;1.00
15450;DHT22;7826;49.784;9.934;2023-11-21T03:26:12;6.50;1.00
15450;DHT22;7826;49.784;9.934;2023-11-21T03:28:39;6.40;1.00
15450;DHT22;7826;49.784;9.934;2023-11-21T03:31:05;6.40;1.00
15450;DHT22;7826;49.784;9.934;2023-11-21T03:33:32;6.40;1.00
15450;DHT22;7826;49.784;9.934;2023-11-21T03:35:59;6.40;1.00
15450;DHT22;7826;49.784;9.934;2023-11-21T03:38:25;6.30;1.00
15450;DHT22;7826;49.784;9.934;2023-11-21T03:40:51;6.30;1.00
15450;DHT22;7826;49.784;9.934;2023-11-21T03:43:18;6.30;1.00
15450;DHT22;7826;49.784;9.934;2023-11-21T03:45:45;6.20;1.00
15450;DHT22;7826;49.784;9.934;2023-11-21T03:48:12;6.10;1.00
15450;DHT22;7826;49.784;9.934;2023-11-21T03:50:39;6.00;1.00
15450;DHT22;7826;49.784;9.934;2023-11-21T03:53:05;5.90;1.00
15450;DHT22;7826;49.784;9.934;2023-11-21T03:55:32;6.00;1.00
15450;DHT22;7826;49.784;9.934;2023-11-21T03:57:58;6.10;1.00
15450;DHT22;7826;49.784;9.934;2023-11-21T04:00:25;6.00;1.00
15450;DHT22;7826;49.784;9.934;2023-11-21T04:02:54;6.00;1.00
15450;DHT22;7826;49.784;9.934;2023-11-21T04:05:21;6.00;1.00
15450;DHT22;7826;49.784;9.934;2023-11-21T04:07:50;6.00;1.00
15450;DHT22;7826;49.784;9.934;2023-11-21T04:10:17;6.10;1.00
15450;DHT22;7826;49.784;9.934;2023-11-21T04:12:44;6.00;1.00
15450;DHT22;7826;49.784;9.934;2023-11-21T04:15:11;6.00;1.00
15450;DHT22;7826;49.784;9.934;2023-11-21T04:17:40;6.00;1.00
15450;DHT22;7826;49.784;9.934;2023-11-21T04:20:08;6.00;1.00
15450;DHT22;7826;49.784;9.934;2023-11-21T04:22:43;6.00;1.00
15450;DHT22;7826;49.784;9.934;2023-11-21T04:25:11;6.00;1.00
15450;DHT22;7826;49.784;9.934;2023-11-21T04:27:41;6.00;1.00
15450;DHT22;7826;49.784;9.934;2023-11-21T04:30:13;6.00;1.00
15450;DHT22;7826;49.784;9.934;2023-11-21T04:32:41;6.00;1.00
15450;DHT22;7826;49.784;9.934;2023-11-21T04:35:08;5.90;1.00
15450;DHT22;7826;49.784;9.934;2023-11-21T04:37:36;5.90;1.00
15450;DHT22;7826;49.784;9.934;2023-11-21T04:40:03;5.80;1.00
15450;DHT22;7826;49.784;9.934;2023-11-21T04:42:34;5.80;1.00
15450;DHT22;7826;49.784;9.934;2023-11-21T04:45:03;5.70;1.00
15450;DHT22;7826;49.784;9.934;2023-11-21T04:47:33;5.70;1.00
15450;DHT22;7826;49.784;9.934;2023-11-21T04:50:00;5.70;1.00
15450;DHT22;7826;49.784;9.934;2023-11-21T04:52:27;5.80;1.00
15450;DHT22;7826;49.784;9.934;2023-11-21T04:54:53;5.80;1.00
15450;DHT22;7826;49.784;9.934;2023-11-21T04:57:21;5.80;1.00
15450;DHT22;7826;49.784;9.934;2023-11-21T04:59:51;5.70;1.00
15450;DHT22;7826;49.784;9.934;2023-11-21T05:02:18;5.70;1.00
15450;DHT22;7826;49.784;9.934;2023-11-21T05:04:45;5.60;1.00
15450;DHT22;7826;49.784;9.934;2023-11-21T05:07:12;5.70;1.00
15450;DHT22;7826;49.784;9.934;2023-11-21T05:09:45;5.70;1.00
15450;DHT22;7826;49.784;9.934;2023-11-21T05:12:12;5.70;1.00
15450;DHT22;7826;49.784;9.934;2023-11-21T05:14:40;5.60;1.00
15450;DHT22;7826;49.784;9.934;2023-11-21T05:17:08;5.60;1.00
15450;DHT22;7826;49.784;9.934;2023-11-21T05:19:34;5.60;1.00
15450;DHT22;7826;49.784;9.934;2023-11-21T05:22:02;5.60;1.00
15450;DHT22;7826;49.784;9.934;2023-11-21T05:24:28;5.70;1.00
15450;DHT22;7826;49.784;9.934;2023-11-21T05:26:55;5.70;1.00
15450;DHT22;7826;49.784;9.934;2023-11-21T05:29:22;5.70;1.00
15450;DHT22;7826;49.784;9.934;2023-11-21T05:31:49;5.70;1.00
15450;DHT22;7826;49.784;9.934;2023-11-21T05:34:15;5.60;1.00
15450;DHT22;7826;49.784;9.934;2023-11-21T05:36:43;5.70;1.00
15450;DHT22;7826;49.784;9.934;2023-11-21T05:39:12;5.70;1.00
15450;DHT22;7826;49.784;9.934;2023-11-21T05:41:38;5.70;1.00
15450;DHT22;7826;49.784;9.934;2023-11-21T05:44:05;5.70;1.00
15450;DHT22;7826;49.784;9.934;2023-11-21T05:46:33;5.80;1.00
15450;DHT22;7826;49.784;9.934;2023-11-21T05:49:00;5.90;1.00
15450;DHT22;7826;49.784;9.934;2023-11-21T05:51:27;5.70;1.00
15450;DHT22;7826;49.784;9.934;2023-11-21T05:53:53;5.70;1.00
15450;DHT22;7826;49.784;9.934;2023-11-21T05:56:20;5.70;1.00
15450;DHT22;7826;49.784;9.934;2023-11-21T05:58:47;5.60;1.00
15450;DHT22;7826;49.784;9.934;2023-11-21T06:01:13;5.60;1.00
15450;DHT22;7826;49.784;9.934;2023-11-21T06:03:40;5.50;1.00
15450;DHT22;7826;49.784;9.934;2023-11-21T06:06:07;5.50;1.00
15450;DHT22;7826;49.784;9.934;2023-11-21T06:08:33;5.60;1.00
15450;DHT22;7826;49.784;9.934;2023-11-21T06:11:00;5.50;1.00
15450;DHT22;7826;49.784;9.934;2023-11-21T06:13:27;5.60;1.00
15450;DHT22;7826;49.784;9.934;2023-11-21T06:15:53;5.60;1.00
15450;DHT22;7826;49.784;9.934;2023-11-21T06:18:21;5.50;1.00
15450;DHT22;7826;49.784;9.934;2023-11-21T06:20:47;5.60;1.00
15450;DHT22;7826;49.784;9.934;2023-11-21T06:23:14;5.60;1.00
15450;DHT22;7826;49.784;9.934;2023-11-21T06:25:40;5.60;1.00
15450;DHT22;7826;49.784;9.934;2023-11-21T06:28:07;5.50;1.00
15450;DHT22;7826;49.784;9.934;2023-11-21T06:30:33;5.50;1.00
15450;DHT22;7826;49.784;9.934;2023-11-21T06:33:00;5.40;1.00
15450;DHT22;7826;49.784;9.934;2023-11-21T06:35:27;5.40;1.00
15450;DHT22;7826;49.784;9.934;2023-11-21T06:37:56;5.40;1.00
15450;DHT22;7826;49.784;9.934;2023-11-21T06:40:23;5.40;1.00
15450;DHT22;7826;49.784;9.934;2023-11-21T06:42:50;5.40;1.00
15450;DHT22;7826;49.784;9.934;2023-11-21T06:45:17;5.40;1.00
15450;DHT22;7826;49.784;9.934;2023-11-21T06:47:44;5.30;1.00
15450;DHT22;7826;49.784;9.934;2023-11-21T06:50:11;5.40;1.00
15450;DHT22;7826;49.784;9.934;2023-11-21T06:52:38;5.30;1.00
15450;DHT22;7826;49.784;9.934;2023-11-21T06:55:05;5.30;1.00
15450;DHT22;7826;49.784;9.934;2023-11-21T06:57:34;5.20;1.00
15450;DHT22;7826;49.784;9.934;2023-11-21T07:00:01;5.30;1.00
15450;DHT22;7826;49.784;9.934;2023-11-21T07:02:27;5.20;1.00
15450;DHT22;7826;49.784;9.934;2023-11-21T07:04:55;5.20;1.00
15450;DHT22;7826;49.784;9.934;2023-11-21T07:07:21;5.10;1.00
15450;DHT22;7826;49.784;9.934;2023-11-21T07:09:48;5.10;1.00
15450;DHT22;7826;49.784;9.934;2023-11-21T07:12:15;5.10;1.00
15450;DHT22;7826;49.784;9.934;2023-11-21T07:14:42;5.10;1.00
15450;DHT22;7826;49.784;9.934;2023-11-21T07:17:11;5.10;1.00
15450;DHT22;7826;49.784;9.934;2023-11-21T07:19:39;5.10;1.00
15450;DHT22;7826;49.784;9.934;2023-11-21T07:22:05;5.00;1.00
15450;DHT22;7826;49.784;9.934;2023-11-21T07:24:32;5.10;1.00
15450;DHT22;7826;49.784;9.934;2023-11-21T07:26:59;5.10;1.00
15450;DHT22;7826;49.784;9.934;2023-11-21T07:29:25;5.10;1.00
15450;DHT22;7826;49.784;9.934;2023-11-21T07:31:53;5.00;1.00
15450;DHT22;7826;49.784;9.934;2023-11-21T07:34:20;5.00;1.00
15450;DHT22;7826;49.784;9.934;2023-11-21T07:36:47;5.10;1.00
15450;DHT22;7826;49.784;9.934;2023-11-21T07:39:14;4.90;1.00
15450;DHT22;7826;49.784;9.934;2023-11-21T07:41:42;5.00;1.00
15450;DHT22;7826;49.784;9.934;2023-11-21T07:44:15;5.00;1.00
15450;DHT22;7826;49.784;9.934;2023-11-21T07:46:42;5.00;1.00
15450;DHT22;7826;49.784;9.934;2023-11-21T07:49:09;5.00;1.00
15450;DHT22;7826;49.784;9.934;2023-11-21T07:51:35;4.90;1.00
15450;DHT22;7826;49.784;9.934;2023-11-21T07:54:02;4.90;1.00
15450;DHT22;7826;49.784;9.934;2023-11-21T07:56:29;4.90;1.00
15450;DHT22;7826;49.784;9.934;2023-11-21T07:58:55;4.90;1.00
15450;DHT22;7826;49.784;9.934;2023-11-21T08:01:22;4.90;1.00
15450;DHT22;7826;49.784;9.934;2023-11-21T08:03:48;4.80;1.00
15450;DHT22;7826;49.784;9.934;2023-11-21T08:06:18;4.70;1.00
15450;DHT22;7826;49.784;9.934;2023-11-21T08:08:44;4.70;1.00
15450;DHT22;7826;49.784;9.934;2023-11-21T08:11:11;4.70;1.00
15450;DHT22;7826;49.784;9.934;2023-11-21T08:13:38;4.80;1.00
15450;DHT22;7826;49.784;9.934;2023-11-21T08:16:06;4.80;1.00
15450;DHT22;7826;49.784;9.934;2023-11-21T08:18:33;4.80;1.00
15450;DHT22;7826;49.784;9.934;2023-11-21T08:21:00;4.80;1.00
15450;DHT22;7826;49.784;9.934;2023-11-21T08:23:27;4.80;1.00
15450;DHT22;7826;49.784;9.934;2023-11-21T08:25:54;4.90;1.00
15450;DHT22;7826;49.784;9.934;2023-11-21T08:28:21;4.90;1.00
15450;DHT22;7826;49.784;9.934;2023-11-21T08:30:52;4.90;1.00
15450;DHT22;7826;49.784;9.934;2023-11-21T08:33:20;4.90;1.00
15450;DHT22;7826;49.784;9.934;2023-11-21T08:35:46;4.80;1.00
15450;DHT22;7826;49.784;9.934;2023-11-21T08:38:13;4.90;1.00
15450;DHT22;7826;49.784;9.934;2023-11-21T08:40:40;4.90;1.00
15450;DHT22;7826;49.784;9.934;2023-11-21T08:43:06;4.80;1.00
15450;DHT22;7826;49.784;9.934;2023-11-21T08:45:33;4.90;1.00
15450;DHT22;7826;49.784;9.934;2023-11-21T08:48:01;4.90;1.00
15450;DHT22;7826;49.784;9.934;2023-11-21T08:50:27;5.00;1.00
15450;DHT22;7826;49.784;9.934;2023-11-21T08:52:54;4.90;1.00
15450;DHT22;7826;49.784;9.934;2023-11-21T08:55:21;4.90;1.00
15450;DHT22;7826;49.784;9.934;2023-11-21T08:57:48;5.00;1.00
15450;DHT22;7826;49.784;9.934;2023-11-21T09:00:15;5.00;1.00
15450;DHT22;7826;49.784;9.934;2023-11-21T09:02:43;5.00;1.00
15450;DHT22;7826;49.784;9.934;2023-11-21T09:05:11;5.00;1.00
15450;DHT22;7826;49.784;9.934;2023-11-21T09:07:41;5.00;1.00
15450;DHT22;7826;49.784;9.934;2023-11-21T09:10:08;5.00;1.00
15450;DHT22;7826;49.784;9.934;2023-11-21T09:12:36;5.00;1.00
15450;DHT22;7826;49.784;9.934;2023-11-21T09:15:07;4.90;1.00
15450;DHT22;7826;49.784;9.934;2023-11-21T09:17:34;4.90;1.00
15450;DHT22;7826;49.784;9.934;2023-11-21T09:20:01;4.90;1.00
15450;DHT22;7826;49.784;9.934;2023-11-21T09:22:29;4.90;1.00
15450;DHT22;7826;49.784;9.934;2023-11-21T09:24:57;4.90;1.00
15450;DHT22;7826;49.784;9.934;2023-11-21T09:27:24;4.90;1.00
15450;DHT22;7826;49.784;9.934;2023-11-21T09:29:52;4.90;1.00
15450;DHT22;7826;49.784;9.934;2023-11-21T09:32:20;4.90;1.00
15450;DHT22;7826;49.784;9.934;2023-11-21T09:34:48;4.90;1.00
15450;DHT22;7826;49.784;9.934;2023-11-21T09:37:16;4.90;1.00
15450;DHT22;7826;49.784;9.934;2023-11-21T09:39:42;4.90;1.00
15450;DHT22;7826;49.784;9.934;2023-11-21T09:42:12;4.90;1.00
15450;DHT22;7826;49.784;9.934;2023-11-21T09:45:03;4.80;1.00
15450;DHT22;7826;49.784;9.934;2023-11-21T09:47:34;4.80;1.00
15450;DHT22;7826;49.784;9.934;2023-11-21T09:50:02;4.80;1.00
15450;DHT22;7826;49.784;9.934;2023-11-21T09:52:29;4.90;1.00
15450;DHT22;7826;49.784;9.934;2023-11-21T09:54:56;4.80;1.00
15450;DHT22;7826;49.784;9.934;2023-11-21T09:57:27;4.80;1.00
15450;DHT22;7826;49.784;9.934;2023-11-21T09:59:54;4.80;1.00
15450;DHT22;7826;49.784;9.934;2023-11-21T10:02:25;4.80;1.00
15450;DHT22;7826;49.784;9.934;2023-11-21T10:04:53;4.70;1.00
15450;DHT22;7826;49.784;9.934;2023-11-21T10:07:21;4.70;1.00
15450;DHT22;7826;49.784;9.934;2023-11-21T10:09:47;4.70;1.00
15450;DHT22;7826;49.784;9.934;2023-11-21T10:12:17;4.80;1.00
15450;DHT22;7826;49.784;9.934;2023-11-21T10:14:48;4.80;1.00
15450;DHT22;7826;49.784;9.934;2023-11-21T10:17:17;4.70;1.00
15450;DHT22;7826;49.784;9.934;2023-11-21T10:19:47;4.70;1.00
15450;DHT22;7826;49.784;9.934;2023-11-21T10:22:16;4.70;1.00
15450;DHT22;7826;49.784;9.934;2023-11-21T10:24:43;4.70;1.00
15450;DHT22;7826;49.784;9.934;2023-11-21T10:27:10;4.70;1.00
15450;DHT22;7826;49.784;9.934;2023-11-21T10:29:36;4.70;1.00
15450;DHT22;7826;49.784;9.934;2023-11-21T10:32:03;4.70;1.00
15450;DHT22;7826;49.784;9.934;2023-11-21T10:34:29;4.70;1.00
15450;DHT22;7826;49.784;9.934;2023-11-21T10:36:56;4.60;1.00
15450;DHT22;7826;49.784;9.934;2023-11-21T10:39:24;4.70;1.00
15450;DHT22;7826;49.784;9.934;2023-11-21T10:41:55;4.70;1.00
15450;DHT22;7826;49.784;9.934;2023-11-21T10:44:22;4.70;1.00
15450;DHT22;7826;49.784;9.934;2023-11-21T10:46:54;4.70;1.00
15450;DHT22;7826;49.784;9.934;2023-11-21T10:49:26;4.70;1.00
15450;DHT22;7826;49.784;9.934;2023-11-21T10:51:54;4.80;1.00
15450;DHT22;7826;49.784;9.934;2023-11-21T10:54:21;4.80;1.00
15450;DHT22;7826;49.784;9.934;2023-11-21T10:56:50;4.80;1.00
15450;DHT22;7826;49.784;9.934;2023-11-21T10:59:19;4.80;1.00
15450;DHT22;7826;49.784;9.934;2023-11-21T11:01:51;4.80;1.00
15450;DHT22;7826;49.784;9.934;2023-11-21T11:04:19;4.80;1.00
15450;DHT22;7826;49.784;9.934;2023-11-21T11:06:49;4.90;1.00
15450;DHT22;7826;49.784;9.934;2023-11-21T11:09:17;4.90;1.00
15450;DHT22;7826;49.784;9.934;2023-11-21T11:11:45;4.90;1.00
15450;DHT22;7826;49.784;9.934;2023-11-21T11:14:13;4.90;1.00
15450;DHT22;7826;49.784;9.934;2023-11-21T11:16:41;5.00;1.00
15450;DHT22;7826;49.784;9.934;2023-11-21T11:19:11;5.00;1.00
15450;DHT22;7826;49.784;9.934;2023-11-21T11:30:25;5.00;1.00
15450;DHT22;7826;49.784;9.934;2023-11-21T11:38:34;4.80;1.00
15450;DHT22;7826;49.784;9.934;2023-11-21T11:41:03;4.80;1.00
15450;DHT22;7826;49.784;9.934;2023-11-21T11:43:30;4.70;1.00
15450;DHT22;7826;49.784;9.934;2023-11-21T11:46:11;4.80;1.00
15450;DHT22;7826;49.784;9.934;2023-11-21T11:48:39;4.70;1.00
15450;DHT22;7826;49.784;9.934;2023-11-21T11:51:14;4.70;1.00
15450;DHT22;7826;49.784;9.934;2023-11-21T11:53:47;4.60;1.00
15450;DHT22;7826;49.784;9.934;2023-11-21T11:58:54;4.70;1.00
15450;DHT22;7826;49.784;9.934;2023-11-21T12:01:22;4.60;1.00
15450;DHT22;7826;49.784;9.934;2023-11-21T12:06:43;4.70;1.00
15450;DHT22;7826;49.784;9.934;2023-11-21T12:09:17;4.60;1.00
15450;DHT22;7826;49.784;9.934;2023-11-21T12:11:46;4.60;1.00
15450;DHT22;7826;49.784;9.934;2023-11-21T12:14:13;4.60;1.00
15450;DHT22;7826;49.784;9.934;2023-11-21T12:16:40;4.60;1.00
15450;DHT22;7826;49.784;9.934;2023-11-21T12:19:12;4.60;1.00
15450;DHT22;7826;49.784;9.934;2023-11-21T12:21:39;4.60;1.00
15450;DHT22;7826;49.784;9.934;2023-11-21T12:24:10;4.60;1.00
15450;DHT22;7826;49.784;9.934;2023-11-21T12:26:40;4.50;1.00
15450;DHT22;7826;49.784;9.934;2023-11-21T12:29:06;4.60;1.00
15450;DHT22;7826;49.784;9.934;2023-11-21T12:31:36;4.60;1.00
15450;DHT22;7826;49.784;9.934;2023-11-21T12:34:04;4.60;1.00
15450;DHT22;7826;49.784;9.934;2023-11-21T12:36:30;4.60;1.00
15450;DHT22;7826;49.784;9.934;2023-11-21T12:38:57;4.60;1.00
15450;DHT22;7826;49.784;9.934;2023-11-21T12:41:23;4.60;1.00
15450;DHT22;7826;49.784;9.934;2023-11-21T12:43:50;4.60;1.00
15450;DHT22;7826;49.784;9.934;2023-11-21T12:46:17;4.60;1.00
15450;DHT22;7826;49.784;9.934;2023-11-21T12:48:44;4.60;1.00
15450;DHT22;7826;49.784;9.934;2023-11-21T12:51:14;4.60;1.00
15450;DHT22;7826;49.784;9.934;2023-11-21T12:53:42;4.50;1.00
15450;DHT22;7826;49.784;9.934;2023-11-21T12:56:12;4.50;1.00
15450;DHT22;7826;49.784;9.934;2023-11-21T12:58:40;4.50;1.00
15450;DHT22;7826;49.784;9.934;2023-11-21T13:01:13;4.50;1.00
15450;DHT22;7826;49.784;9.934;2023-11-21T13:03:46;4.50;1.00
15450;DHT22;7826;49.784;9.934;2023-11-21T13:06:15;4.50;1.00
15450;DHT22;7826;49.784;9.934;2023-11-21T13:08:44;4.50;1.00
15450;DHT22;7826;49.784;9.934;2023-11-21T13:11:11;4.40;1.00
15450;DHT22;7826;49.784;9.934;2023-11-21T13:13:41;4.40;1.00
15450;DHT22;7826;49.784;9.934;2023-11-21T13:16:11;4.40;1.00
15450;DHT22;7826;49.784;9.934;2023-11-21T13:18:39;4.40;1.00
15450;DHT22;7826;49.784;9.934;2023-11-21T13:21:08;4.40;1.00
15450;DHT22;7826;49.784;9.934;2023-11-21T13:23:43;4.40;1.00
15450;DHT22;7826;49.784;9.934;2023-11-21T13:26:12;4.30;1.00
15450;DHT22;7826;49.784;9.934;2023-11-21T13:28:40;4.20;1.00
15450;DHT22;7826;49.784;9.934;2023-11-21T13:31:12;4.20;1.00
15450;DHT22;7826;49.784;9.934;2023-11-21T13:33:52;4.20;1.00
15450;DHT22;7826;49.784;9.934;2023-11-21T13:36:23;4.20;1.00
15450;DHT22;7826;49.784;9.934;2023-11-21T13:38:50;4.20;1.00
15450;DHT22;7826;49.784;9.934;2023-11-21T13:41:18;4.20;1.00
15450;DHT22;7826;49.784;9.934;2023-11-21T13:43:45;4.20;1.00
15450;DHT22;7826;49.784;9.934;2023-11-21T13:46:15;4.20;1.00
15450;DHT22;7826;49.784;9.934;2023-11-21T13:48:48;4.20;1.00
15450;DHT22;7826;49.784;9.934;2023-11-21T13:51:22;4.10;1.00
15450;DHT22;7826;49.784;9.934;2023-11-21T13:53:57;4.10;1.00
15450;DHT22;7826;49.784;9.934;2023-11-21T13:56:25;4.00;1.00
15450;DHT22;7826;49.784;9.934;2023-11-21T13:58:54;4.00;1.00
15450;DHT22;7826;49.784;9.934;2023-11-21T14:01:23;4.00;1.00
15450;DHT22;7826;49.784;9.934;2023-11-21T14:04:01;4.10;1.00
15450;DHT22;7826;49.784;9.934;2023-11-21T14:06:49;4.10;1.00
15450;DHT22;7826;49.784;9.934;2023-11-21T14:09:19;4.10;1.00
15450;DHT22;7826;49.784;9.934;2023-11-21T14:11:51;4.10;1.00
15450;DHT22;7826;49.784;9.934;2023-11-21T14:14:19;4.00;1.00
15450;DHT22;7826;49.784;9.934;2023-11-21T14:16:46;4.10;1.00
15450;DHT22;7826;49.784;9.934;2023-11-21T14:19:13;4.10;1.00
15450;DHT22;7826;49.784;9.934;2023-11-21T14:21:46;4.00;1.00
15450;DHT22;7826;49.784;9.934;2023-11-21T14:24:14;4.00;1.00
15450;DHT22;7826;49.784;9.934;2023-11-21T14:26:44;4.00;1.00
15450;DHT22;7826;49.784;9.934;2023-11-21T14:29:18;4.00;1.00
15450;DHT22;7826;49.784;9.934;2023-11-21T14:31:47;3.90;1.00
15450;DHT22;7826;49.784;9.934;2023-11-21T14:34:13;4.00;1.00
15450;DHT22;7826;49.784;9.934;2023-11-21T14:36:41;3.90;1.00
15450;DHT22;7826;49.784;9.934;2023-11-21T14:39:09;3.80;1.00
15450;DHT22;7826;49.784;9.934;2023-11-21T14:41:46;3.80;1.00
15450;DHT22;7826;49.784;9.934;2023-11-21T14:44:13;3.80;1.00
15450;DHT22;7826;49.784;9.934;2023-11-21T14:46:41;3.80;1.00
15450;DHT22;7826;49.784;9.934;2023-11-21T14:49:12;3.80;1.00
15450;DHT22;7826;49.784;9.934;2023-11-21T14:51:51;3.80;1.00
15450;DHT22;7826;49.784;9.934;2023-11-21T14:54:34;3.70;1.00
15450;DHT22;7826;49.784;9.934;2023-11-21T14:57:10;3.70;1.00
15450;DHT22;7826;49.784;9.934;2023-11-21T14:59:46;3.60;1.00
15450;DHT22;7826;49.784;9.934;2023-11-21T15:02:14;3.60;1.00
15450;DHT22;7826;49.784;9.934;2023-11-21T15:04:42;3.60;1.00
15450;DHT22;7826;49.784;9.934;2023-11-21T15:07:09;3.60;1.00
15450;DHT22;7826;49.784;9.934;2023-11-21T15:09:39;3.50;1.00
15450;DHT22;7826;49.784;9.934;2023-11-21T15:12:11;3.50;1.00
15450;DHT22;7826;49.784;9.934;2023-11-21T15:17:09;3.40;1.00
15450;DHT22;7826;49.784;9.934;2023-11-21T15:19:36;3.30;1.00
15450;DHT22;7826;49.784;9.934;2023-11-21T15:22:03;3.30;1.00
15450;DHT22;7826;49.784;9.934;2023-11-21T15:24:29;3.30;1.00
15450;DHT22;7826;49.784;9.934;2023-11-21T15:26:56;3.20;1.00
15450;DHT22;7826;49.784;9.934;2023-11-21T15:29:22;3.20;1.00
15450;DHT22;7826;49.784;9.934;2023-11-21T15:31:49;3.20;1.00
15450;DHT22;7826;49.784;9.934;2023-11-21T15:34:15;3.10;1.00
15450;DHT22;7826;49.784;9.934;2023-11-21T15:36:42;3.00;1.00
15450;DHT22;7826;49.784;9.934;2023-11-21T15:39:09;3.10;1.00
15450;DHT22;7826;49.784;9.934;2023-11-21T15:41:39;2.90;1.00
15450;DHT22;7826;49.784;9.934;2023-11-21T15:44:07;2.90;1.00
15450;DHT22;7826;49.784;9.934;2023-11-21T15:46:36;3.00;1.00
15450;DHT22;7826;49.784;9.934;2023-11-21T15:49:03;3.00;1.00
15450;DHT22;7826;49.784;9.934;2023-11-21T15:51:44;2.90;1.00
15450;DHT22;7826;49.784;9.934;2023-11-21T15:54:19;3.00;1.00
15450;DHT22;7826;49.784;9.934;2023-11-21T15:56:50;2.90;1.00
15450;DHT22;7826;49.784;9.934;2023-11-21T15:59:18;3.00;1.00
15450;DHT22;7826;49.784;9.934;2023-11-21T16:01:45;3.00;1.00
15450;DHT22;7826;49.784;9.934;2023-11-21T16:04:13;3.00;1.00
15450;DHT22;7826;49.784;9.934;2023-11-21T16:06:44;2.90;1.00
15450;DHT22;7826;49.784;9.934;2023-11-21T16:09:12;2.90;1.00
15450;DHT22;7826;49.784;9.934;2023-11-21T16:12:03;2.80;1.00
15450;DHT22;7826;49.784;9.934;2023-11-21T16:14:33;2.80;1.00
15450;DHT22;7826;49.784;9.934;2023-11-21T16:17:12;2.80;1.00
15450;DHT22;7826;49.784;9.934;2023-11-21T16:19:39;2.70;1.00
15450;DHT22;7826;49.784;9.934;2023-11-21T16:22:06;2.70;1.00
15450;DHT22;7826;49.784;9.934;2023-11-21T16:24:32;2.60;1.00
15450;DHT22;7826;49.784;9.934;2023-11-21T16:27:00;2.70;1.00
15450;DHT22;7826;49.784;9.934;2023-11-21T16:29:28;2.70;1.00
15450;DHT22;7826;49.784;9.934;2023-11-21T16:31:57;2.60;1.00
15450;DHT22;7826;49.784;9.934;2023-11-21T16:34:23;2.60;1.00
15450;DHT22;7826;49.784;9.934;2023-11-21T16:36:50;2.60;1.00
15450;DHT22;7826;49.784;9.934;2023-11-21T16:39:18;2.70;1.00
15450;DHT22;7826;49.784;9.934;2023-11-21T16:41:46;2.60;1.00
15450;DHT22;7826;49.784;9.934;2023-11-21T16:44:19;2.60;1.00
15450;DHT22;7826;49.784;9.934;2023-11-21T16:46:50;2.60;1.00